Time;durP1;ratioP1;P1;durP2;ratioP2;P2;SDS_P1;SDS_P2;PMS_P1;PMS_P2;Temp;Humidity;BMP_temperature;BMP_pressure;BME280_temperature;BME280_humidity;BME280_pressure;Samples;Min_cycle;Max_cycle;Signal;HPM_P1;HPM_P2
2021/10/07 00:01:56;;;;;;;5.63;2.90;;;;;;;;;;4993965;28;20044;-66
2021/10/07 00:04:22;;;;;;;6.28;3.50;;;;;;;;;;5013249;28;20041;-66
2021/10/07 00:06:48;;;;;;;7.38;4.20;;;;;;;;;;4987052;28;20070;-66
2021/10/07 00:09:14;;;;;;;4.55;3.33;;;;;;;;;;4966963;28;20583;-66
2021/10/07 00:11:42;;;;;;;5.35;3.20;;;;;;;;;;5004433;28;20490;-66
2021/10/07 00:14:09;;;;;;;7.45;3.85;;;;;;;;;;4987092;28;20048;-66
2021/10/07 00:16:35;;;;;;;7.50;3.75;;;;;;;;;;4993478;28;20097;-66
2021/10/07 00:19:01;;;;;;;11.02;5.35;;;;;;;;;;5012608;28;20481;-66
2021/10/07 00:21:28;;;;;;;11.15;5.70;;;;;;;;;;5011692;28;20137;-66
2021/10/07 00:24:07;;;;;;;12.68;5.93;;;;;;;;;;4994806;28;20049;-66
2021/10/07 00:26:34;;;;;;;17.35;5.57;;;;;;;;;;5008768;28;20038;-66
2021/10/07 00:29:11;;;;;;;22.55;5.35;;;;;;;;;;4994144;28;20125;-66
2021/10/07 00:31:40;;;;;;;9.18;4.78;;;;;;;;;;4992472;28;20103;-66
2021/10/07 00:34:22;;;;;;;6.65;3.67;;;;;;;;;;5010190;28;20084;-66
2021/10/07 00:37:18;;;;;;;5.93;2.67;;;;;;;;;;4989673;28;20050;-66
2021/10/07 00:39:44;;;;;;;5.65;2.33;;;;;;;;;;5012042;28;20046;-66
2021/10/07 00:42:11;;;;;;;7.78;2.78;;;;;;;;;;5010667;28;20049;-66
2021/10/07 00:44:39;;;;;;;4.93;1.80;;;;;;;;;;5009665;28;20053;-66
2021/10/07 00:47:06;;;;;;;4.88;2.00;;;;;;;;;;5010945;28;20041;-66
2021/10/07 00:49:35;;;;;;;2.83;1.30;;;;;;;;;;5011825;28;20121;-66
2021/10/07 00:52:02;;;;;;;7.47;2.38;;;;;;;;;;5010363;28;20461;-66
2021/10/07 00:54:29;;;;;;;5.68;2.90;;;;;;;;;;5012297;28;20054;-66
2021/10/07 00:56:56;;;;;;;5.63;3.65;;;;;;;;;;4986061;28;20597;-66
2021/10/07 00:59:23;;;;;;;6.47;3.20;;;;;;;;;;5005648;28;20094;-66
2021/10/07 01:01:49;;;;;;;6.00;3.78;;;;;;;;;;4992950;28;20119;-66
2021/10/07 01:04:15;;;;;;;4.85;2.50;;;;;;;;;;4993453;28;20042;-66
2021/10/07 01:06:42;;;;;;;6.65;2.40;;;;;;;;;;5011731;28;20057;-66
2021/10/07 01:09:08;;;;;;;7.13;2.85;;;;;;;;;;5011882;28;20044;-66
2021/10/07 01:11:35;;;;;;;5.30;2.88;;;;;;;;;;5003952;28;20074;-66
2021/10/07 01:14:01;;;;;;;5.07;2.63;;;;;;;;;;4991867;28;20054;-66
2021/10/07 01:16:28;;;;;;;11.88;2.42;;;;;;;;;;4992524;28;20048;-66
2021/10/07 01:18:54;;;;;;;6.45;2.08;;;;;;;;;;5009527;28;20512;-66
2021/10/07 01:21:21;;;;;;;18.63;2.15;;;;;;;;;;5007662;28;20461;-66
2021/10/07 01:23:48;;;;;;;14.02;2.60;;;;;;;;;;5011651;28;20053;-66
2021/10/07 01:26:18;;;;;;;84.78;6.13;;;;;;;;;;5010356;28;20103;-66
2021/10/07 01:28:45;;;;;;;75.35;4.75;;;;;;;;;;4993772;28;20141;-66
2021/10/07 01:31:12;;;;;;;25.38;3.50;;;;;;;;;;4992818;28;20050;-66
2021/10/07 01:33:39;;;;;;;44.53;3.40;;;;;;;;;;5010418;28;20042;-65
2021/10/07 01:36:05;;;;;;;73.45;5.63;;;;;;;;;;4993262;28;20173;-66
2021/10/07 01:38:32;;;;;;;27.88;3.67;;;;;;;;;;4985435;28;20053;-66
2021/10/07 01:40:58;;;;;;;4.22;2.70;;;;;;;;;;5010588;28;20096;-66
2021/10/07 01:43:24;;;;;;;28.63;3.67;;;;;;;;;;5007907;28;20139;-66
2021/10/07 01:45:51;;;;;;;19.25;4.30;;;;;;;;;;4992410;28;20534;-66
2021/10/07 01:48:18;;;;;;;6.22;3.05;;;;;;;;;;5011069;28;20038;-66
2021/10/07 01:50:44;;;;;;;6.82;3.97;;;;;;;;;;5011004;28;20509;-66
2021/10/07 01:53:11;;;;;;;10.55;4.60;;;;;;;;;;5007438;28;20455;-66
2021/10/07 01:55:37;;;;;;;8.68;4.32;;;;;;;;;;5011116;28;20045;-66
2021/10/07 01:58:04;;;;;;;10.88;4.88;;;;;;;;;;5009598;28;20054;-66
2021/10/07 02:00:30;;;;;;;8.55;4.30;;;;;;;;;;4991842;28;20054;-66
2021/10/07 02:02:56;;;;;;;11.52;4.28;;;;;;;;;;5008456;28;20096;-66
2021/10/07 02:05:22;;;;;;;18.85;5.18;;;;;;;;;;5008435;28;20042;-66
2021/10/07 02:07:49;;;;;;;11.32;4.30;;;;;;;;;;5007782;28;20093;-66
2021/10/07 02:10:15;;;;;;;8.63;2.65;;;;;;;;;;4993522;28;20065;-66
2021/10/07 02:12:42;;;;;;;3.65;1.50;;;;;;;;;;5002979;28;20483;-66
2021/10/07 02:15:09;;;;;;;2.78;1.23;;;;;;;;;;4991997;28;20088;-66
2021/10/07 02:17:35;;;;;;;28.23;1.98;;;;;;;;;;5001347;28;20042;-66
2021/10/07 02:20:01;;;;;;;1.83;1.00;;;;;;;;;;4992595;28;20118;-66
2021/10/07 02:22:27;;;;;;;1.52;0.95;;;;;;;;;;5006764;28;20046;-66
2021/10/07 02:24:53;;;;;;;3.70;1.25;;;;;;;;;;5006897;28;20056;-66
2021/10/07 02:27:20;;;;;;;2.40;1.10;;;;;;;;;;5004815;28;20050;-66
2021/10/07 02:29:46;;;;;;;2.60;1.48;;;;;;;;;;4991597;28;20069;-66
2021/10/07 02:32:13;;;;;;;3.13;1.40;;;;;;;;;;4992512;28;20454;-65
2021/10/07 02:34:39;;;;;;;3.40;1.75;;;;;;;;;;5002774;28;20495;-66
2021/10/07 02:37:05;;;;;;;3.80;1.60;;;;;;;;;;4986594;28;20479;-66
2021/10/07 02:39:32;;;;;;;3.03;1.55;;;;;;;;;;5003255;28;20053;-66
2021/10/07 02:41:58;;;;;;;3.78;1.63;;;;;;;;;;4991396;28;20042;-66
2021/10/07 02:44:24;;;;;;;3.67;2.13;;;;;;;;;;5002103;28;20398;-66
2021/10/07 02:46:50;;;;;;;6.65;2.83;;;;;;;;;;4986738;28;20046;-66
2021/10/07 02:49:16;;;;;;;7.55;3.90;;;;;;;;;;4989260;28;20050;-66
2021/10/07 02:51:43;;;;;;;10.32;3.92;;;;;;;;;;4998043;28;20034;-66
2021/10/07 02:54:09;;;;;;;9.40;4.10;;;;;;;;;;5000734;28;20171;-66
2021/10/07 02:56:35;;;;;;;10.50;4.07;;;;;;;;;;4985825;28;20038;-67
2021/10/07 02:59:01;;;;;;;75.95;5.93;;;;;;;;;;5009549;28;20045;-66
2021/10/07 03:01:27;;;;;;;144.80;6.60;;;;;;;;;;5010709;28;20038;-66
2021/10/07 03:03:54;;;;;;;146.95;6.53;;;;;;;;;;4993905;28;20125;-66
2021/10/07 03:06:20;;;;;;;64.20;4.70;;;;;;;;;;4991719;28;20049;-66
2021/10/07 03:08:46;;;;;;;108.28;5.90;;;;;;;;;;4984691;28;20663;-66
2021/10/07 03:11:13;;;;;;;89.72;6.68;;;;;;;;;;4993390;28;20038;-66
2021/10/07 03:13:39;;;;;;;44.13;5.30;;;;;;;;;;5004170;28;20371;-66
2021/10/07 03:16:05;;;;;;;15.68;4.63;;;;;;;;;;4996587;28;20038;-66
2021/10/07 03:18:31;;;;;;;9.32;4.82;;;;;;;;;;5009270;28;20046;-66
2021/10/07 03:20:57;;;;;;;12.93;4.80;;;;;;;;;;4995919;28;20053;-66
2021/10/07 03:23:24;;;;;;;8.93;4.20;;;;;;;;;;5013748;28;20117;-66
2021/10/07 03:25:50;;;;;;;10.93;5.80;;;;;;;;;;5013030;28;20100;-66
2021/10/07 03:28:16;;;;;;;23.15;7.43;;;;;;;;;;5013654;28;20077;-66
2021/10/07 03:30:42;;;;;;;17.42;6.10;;;;;;;;;;5013969;28;20037;-66
2021/10/07 03:33:09;;;;;;;10.57;6.32;;;;;;;;;;5012571;28;20050;-66
2021/10/07 03:35:36;;;;;;;9.27;6.70;;;;;;;;;;5012480;28;20124;-66
2021/10/07 03:38:02;;;;;;;10.27;6.38;;;;;;;;;;5009021;28;20042;-66
2021/10/07 03:40:29;;;;;;;7.70;5.30;;;;;;;;;;5012857;28;20121;-66
2021/10/07 03:42:55;;;;;;;9.40;5.47;;;;;;;;;;5005897;28;20484;-66
2021/10/07 03:45:21;;;;;;;8.02;5.20;;;;;;;;;;4991432;28;20030;-65
2021/10/07 03:47:47;;;;;;;14.55;6.15;;;;;;;;;;4991514;28;20514;-66
2021/10/07 03:50:14;;;;;;;10.40;5.22;;;;;;;;;;4995066;28;20066;-66
2021/10/07 03:52:40;;;;;;;165.02;10.30;;;;;;;;;;4991494;28;20069;-66
2021/10/07 03:55:06;;;;;;;43.45;6.93;;;;;;;;;;4995430;28;20068;-66
2021/10/07 03:57:32;;;;;;;86.68;6.60;;;;;;;;;;4999796;28;20513;-66
2021/10/07 04:00:00;;;;;;;77.22;5.38;;;;;;;;;;5011350;28;20493;-66
2021/10/07 04:02:26;;;;;;;34.28;4.47;;;;;;;;;;5009785;28;20051;-66
2021/10/07 04:04:52;;;;;;;68.97;5.60;;;;;;;;;;5011524;28;20042;-66
2021/10/07 04:07:18;;;;;;;189.07;8.48;;;;;;;;;;5007630;28;20041;-65
2021/10/07 04:09:44;;;;;;;111.20;6.47;;;;;;;;;;5007808;28;20053;-66
2021/10/07 04:12:10;;;;;;;137.25;9.07;;;;;;;;;;5010231;28;20489;-66
2021/10/07 04:14:37;;;;;;;112.00;9.48;;;;;;;;;;5005941;28;20557;-66
2021/10/07 04:17:03;;;;;;;41.72;6.22;;;;;;;;;;5007630;28;20042;-66
2021/10/07 04:19:29;;;;;;;167.38;9.85;;;;;;;;;;5011813;28;20061;-66
2021/10/07 04:21:55;;;;;;;59.47;7.45;;;;;;;;;;5001075;28;20050;-66
2021/10/07 04:24:22;;;;;;;60.45;7.18;;;;;;;;;;4993322;28;20504;-66
2021/10/07 04:26:48;;;;;;;139.57;9.57;;;;;;;;;;5006924;28;20478;-66
2021/10/07 04:29:14;;;;;;;152.75;10.27;;;;;;;;;;5011736;28;20038;-66
2021/10/07 04:31:40;;;;;;;147.82;7.88;;;;;;;;;;5011247;28;20107;-66
2021/10/07 04:34:07;;;;;;;114.13;8.80;;;;;;;;;;5011316;28;20046;-66
2021/10/07 04:36:33;;;;;;;246.43;14.68;;;;;;;;;;5011597;28;20069;-66
2021/10/07 04:39:00;;;;;;;122.68;9.18;;;;;;;;;;5011139;28;20050;-66
2021/10/07 04:41:26;;;;;;;74.10;7.00;;;;;;;;;;5011021;28;20038;-66
2021/10/07 04:43:52;;;;;;;49.40;6.18;;;;;;;;;;5011161;28;20490;-65
2021/10/07 04:46:21;;;;;;;61.17;7.03;;;;;;;;;;5012522;28;20048;-67
2021/10/07 04:48:48;;;;;;;25.85;7.72;;;;;;;;;;5009263;28;20050;-67
2021/10/07 04:51:14;;;;;;;62.80;8.85;;;;;;;;;;5024800;28;20126;-65
2021/10/07 04:53:40;;;;;;;130.60;11.75;;;;;;;;;;5006578;28;20401;-66
2021/10/07 04:56:06;;;;;;;127.03;11.82;;;;;;;;;;5005749;28;20433;-65
2021/10/07 04:58:33;;;;;;;113.07;11.38;;;;;;;;;;5007058;28;20414;-65
2021/10/07 05:00:59;;;;;;;73.70;12.73;;;;;;;;;;5023373;28;20071;-65
2021/10/07 05:03:25;;;;;;;63.53;11.23;;;;;;;;;;5005385;28;20446;-66
2021/10/07 05:05:51;;;;;;;76.97;11.23;;;;;;;;;;5008922;28;20524;-66
2021/10/07 05:08:17;;;;;;;103.22;13.38;;;;;;;;;;5009657;28;20099;-65
2021/10/07 05:10:45;;;;;;;77.40;11.93;;;;;;;;;;5008427;28;20780;-65
2021/10/07 05:13:12;;;;;;;108.25;11.45;;;;;;;;;;5007674;28;20046;-65
2021/10/07 05:15:38;;;;;;;22.90;10.02;;;;;;;;;;4999858;28;20042;-65
2021/10/07 05:18:04;;;;;;;27.60;11.13;;;;;;;;;;5007226;28;20088;-65
2021/10/07 05:20:30;;;;;;;25.95;9.90;;;;;;;;;;5002664;28;20430;-65
2021/10/07 05:22:57;;;;;;;16.70;8.73;;;;;;;;;;5007200;28;20054;-65
2021/10/07 05:25:23;;;;;;;36.50;10.23;;;;;;;;;;5008792;28;20183;-65
2021/10/07 05:27:49;;;;;;;44.67;8.43;;;;;;;;;;5009483;28;20054;-66
2021/10/07 05:30:15;;;;;;;49.10;8.80;;;;;;;;;;5009765;28;20069;-65
2021/10/07 05:32:41;;;;;;;22.80;8.07;;;;;;;;;;5006465;28;20129;-65
2021/10/07 05:35:08;;;;;;;16.92;6.47;;;;;;;;;;5004952;28;20507;-66
2021/10/07 05:37:34;;;;;;;12.43;6.53;;;;;;;;;;4999840;28;20081;-66
2021/10/07 05:40:01;;;;;;;50.00;7.57;;;;;;;;;;5006354;28;20052;-66
2021/10/07 05:42:27;;;;;;;43.13;7.70;;;;;;;;;;5008792;28;20046;-66
2021/10/07 05:44:53;;;;;;;105.68;8.70;;;;;;;;;;5009929;28;20511;-66
2021/10/07 05:47:19;;;;;;;82.80;7.03;;;;;;;;;;5008738;28;20121;-66
2021/10/07 05:49:45;;;;;;;93.30;7.60;;;;;;;;;;5012174;28;20038;-65
2021/10/07 05:52:11;;;;;;;84.82;6.93;;;;;;;;;;5008540;28;20042;-66
2021/10/07 05:54:38;;;;;;;90.15;7.97;;;;;;;;;;5009536;28;20472;-66
2021/10/07 05:57:04;;;;;;;113.88;9.77;;;;;;;;;;5010352;28;20151;-66
2021/10/07 05:59:31;;;;;;;111.80;8.80;;;;;;;;;;5010054;28;20100;-66
2021/10/07 06:01:58;;;;;;;146.57;10.25;;;;;;;;;;4993108;28;20549;-66
2021/10/07 06:04:25;;;;;;;158.25;11.90;;;;;;;;;;4993003;28;20508;-66
2021/10/07 06:06:51;;;;;;;127.85;11.70;;;;;;;;;;5009723;28;20085;-66
2021/10/07 06:09:17;;;;;;;84.65;10.90;;;;;;;;;;4993107;28;20494;-66
2021/10/07 06:11:43;;;;;;;99.47;10.63;;;;;;;;;;5010010;28;20492;-66
2021/10/07 06:14:10;;;;;;;100.53;11.05;;;;;;;;;;5010241;28;20053;-66
2021/10/07 06:16:39;;;;;;;180.48;11.80;;;;;;;;;;5010765;28;20046;-66
2021/10/07 06:19:09;;;;;;;157.90;12.32;;;;;;;;;;4992730;28;20050;-66
2021/10/07 06:21:35;;;;;;;94.80;8.90;;;;;;;;;;4992303;28;20171;-66
2021/10/07 06:24:02;;;;;;;79.10;7.63;;;;;;;;;;5010366;28;20410;-66
2021/10/07 06:26:28;;;;;;;92.25;7.65;;;;;;;;;;4993024;28;20125;-66
2021/10/07 06:28:54;;;;;;;50.75;6.82;;;;;;;;;;4992101;28;20117;-66
2021/10/07 06:31:20;;;;;;;34.60;6.95;;;;;;;;;;4992969;28;20037;-66
2021/10/07 06:33:47;;;;;;;68.72;6.85;;;;;;;;;;4997017;28;20122;-66
2021/10/07 06:36:13;;;;;;;28.90;5.70;;;;;;;;;;4996883;28;20502;-66
2021/10/07 06:38:40;;;;;;;23.67;5.70;;;;;;;;;;4997606;28;20045;-66
2021/10/07 06:41:06;;;;;;;33.08;6.45;;;;;;;;;;5014628;28;20496;-66
2021/10/07 06:43:32;;;;;;;60.17;7.63;;;;;;;;;;4995745;28;20073;-67
2021/10/07 06:45:58;;;;;;;63.97;8.70;;;;;;;;;;5014552;28;20042;-66
2021/10/07 06:48:24;;;;;;;126.82;11.30;;;;;;;;;;4995863;28;20057;-66
2021/10/07 06:50:50;;;;;;;167.43;12.93;;;;;;;;;;5014605;28;20088;-66
2021/10/07 06:53:17;;;;;;;267.55;16.65;;;;;;;;;;4996394;28;20045;-66
2021/10/07 06:55:44;;;;;;;255.50;17.40;;;;;;;;;;5013516;28;20436;-66
2021/10/07 06:58:10;;;;;;;307.23;20.08;;;;;;;;;;5014433;28;20100;-66
2021/10/07 07:00:37;;;;;;;250.95;17.67;;;;;;;;;;5014329;28;20049;-66
2021/10/07 07:03:05;;;;;;;208.90;15.73;;;;;;;;;;5013722;28;20069;-66
2021/10/07 07:05:31;;;;;;;265.20;19.63;;;;;;;;;;4996406;28;20046;-66
2021/10/07 07:07:57;;;;;;;190.45;17.17;;;;;;;;;;5014276;28;20046;-66
2021/10/07 07:10:24;;;;;;;161.52;18.00;;;;;;;;;;5012852;28;20053;-66
2021/10/07 07:12:51;;;;;;;149.85;18.63;;;;;;;;;;5014009;28;20084;-66
2021/10/07 07:15:18;;;;;;;107.18;16.00;;;;;;;;;;4997137;28;20104;-66
2021/10/07 07:17:44;;;;;;;124.63;15.25;;;;;;;;;;5013890;28;20052;-66
2021/10/07 07:20:10;;;;;;;128.25;15.20;;;;;;;;;;4997051;28;20042;-66
2021/10/07 07:22:38;;;;;;;88.65;17.58;;;;;;;;;;4997111;28;20100;-66
2021/10/07 07:25:04;;;;;;;134.32;16.55;;;;;;;;;;5012578;28;20049;-66
2021/10/07 07:27:30;;;;;;;142.40;16.90;;;;;;;;;;5014638;28;20052;-66
2021/10/07 07:29:57;;;;;;;151.68;16.85;;;;;;;;;;4996925;28;20120;-66
2021/10/07 07:32:23;;;;;;;100.18;17.02;;;;;;;;;;5013793;28;20042;-66
2021/10/07 07:34:49;;;;;;;228.95;20.23;;;;;;;;;;4996545;28;20092;-66
2021/10/07 07:37:15;;;;;;;291.52;19.75;;;;;;;;;;4996905;28;20375;-66
2021/10/07 07:39:42;;;;;;;221.43;18.35;;;;;;;;;;5013675;28;20046;-66
2021/10/07 07:42:08;;;;;;;314.52;21.73;;;;;;;;;;5014544;28;20080;-66
2021/10/07 07:44:35;;;;;;;284.73;21.85;;;;;;;;;;5012612;28;20398;-66
2021/10/07 07:47:01;;;;;;;276.13;21.95;;;;;;;;;;4996272;28;20506;-66
2021/10/07 07:49:27;;;;;;;336.90;23.42;;;;;;;;;;4996532;28;20061;-66
2021/10/07 07:51:53;;;;;;;278.08;22.35;;;;;;;;;;4995595;28;20659;-66
2021/10/07 07:54:20;;;;;;;219.45;18.83;;;;;;;;;;5014326;28;20042;-66
2021/10/07 07:56:46;;;;;;;294.35;22.65;;;;;;;;;;4996185;28;20180;-66
2021/10/07 07:59:12;;;;;;;162.65;20.10;;;;;;;;;;4995658;28;20117;-66
2021/10/07 08:01:38;;;;;;;194.23;20.85;;;;;;;;;;4996239;28;20057;-66
2021/10/07 08:04:06;;;;;;;155.80;18.30;;;;;;;;;;5013775;28;20086;-66
2021/10/07 08:06:33;;;;;;;185.50;19.70;;;;;;;;;;5012946;28;20048;-66
2021/10/07 08:08:59;;;;;;;116.13;19.35;;;;;;;;;;5013568;28;20052;-66
2021/10/07 08:11:25;;;;;;;210.02;19.50;;;;;;;;;;5013986;28;20091;-66
2021/10/07 08:13:52;;;;;;;160.38;19.08;;;;;;;;;;4995440;28;20041;-66
2021/10/07 08:16:18;;;;;;;204.77;22.08;;;;;;;;;;4995988;28;20554;-66
2021/10/07 08:18:45;;;;;;;157.10;20.05;;;;;;;;;;4996078;28;20046;-66
2021/10/07 08:21:11;;;;;;;188.27;19.30;;;;;;;;;;5012524;28;20042;-66
2021/10/07 08:23:37;;;;;;;94.22;20.42;;;;;;;;;;5013557;28;20069;-66
2021/10/07 08:26:04;;;;;;;173.80;20.50;;;;;;;;;;5013347;28;20151;-66
2021/10/07 08:28:30;;;;;;;139.15;21.65;;;;;;;;;;4994914;28;20058;-66
2021/10/07 08:30:56;;;;;;;143.40;21.23;;;;;;;;;;5013503;28;20038;-66
2021/10/07 08:33:23;;;;;;;173.23;21.65;;;;;;;;;;5013098;28;20042;-66
2021/10/07 08:35:50;;;;;;;108.93;22.63;;;;;;;;;;5012498;28;20477;-66
2021/10/07 08:38:17;;;;;;;169.55;23.70;;;;;;;;;;4995471;28;20057;-66
2021/10/07 08:40:43;;;;;;;241.43;23.60;;;;;;;;;;5013349;28;20389;-66
2021/10/07 08:43:10;;;;;;;104.18;22.27;;;;;;;;;;5012306;28;20046;-66
2021/10/07 08:45:36;;;;;;;286.35;24.17;;;;;;;;;;4995466;28;20182;-66
2021/10/07 08:48:02;;;;;;;37.53;18.70;;;;;;;;;;5012122;28;20060;-66
2021/10/07 08:50:28;;;;;;;186.10;23.70;;;;;;;;;;5013128;28;20132;-66
2021/10/07 08:52:55;;;;;;;94.47;17.45;;;;;;;;;;5013189;28;20129;-66
2021/10/07 08:55:21;;;;;;;153.68;17.98;;;;;;;;;;4994301;28;20093;-66
2021/10/07 08:57:47;;;;;;;108.32;17.92;;;;;;;;;;5012765;28;20054;-66
2021/10/07 09:00:15;;;;;;;100.50;16.15;;;;;;;;;;4995265;28;20057;-66
2021/10/07 09:02:42;;;;;;;128.82;15.02;;;;;;;;;;5011978;28;20390;-66
2021/10/07 09:05:15;;;;;;;135.45;13.95;;;;;;;;;;5012928;28;20077;-66
2021/10/07 09:07:41;;;;;;;;;;;;;;;;;;5000164;28;20401;-66
2021/10/07 09:10:08;;;;;;;126.25;12.73;;;;;;;;;;5011935;28;20420;-66
2021/10/07 09:12:35;;;;;;;81.63;13.32;;;;;;;;;;5012521;28;20057;-66
2021/10/07 09:15:01;;;;;;;116.32;17.10;;;;;;;;;;5012544;28;20087;-66
2021/10/07 09:17:29;;;;;;;107.22;12.32;;;;;;;;;;5011794;28;20046;-66
2021/10/07 09:19:55;;;;;;;110.95;11.85;;;;;;;;;;4994872;28;20099;-66
2021/10/07 09:22:24;;;;;;;87.78;12.20;;;;;;;;;;4994576;28;20494;-66
2021/10/07 09:24:52;;;;;;;74.80;13.63;;;;;;;;;;5011569;28;20049;-66
2021/10/07 09:27:20;;;;;;;60.13;14.50;;;;;;;;;;5012309;28;20522;-66
2021/10/07 09:29:48;;;;;;;43.60;12.95;;;;;;;;;;4994460;28;20049;-66
2021/10/07 09:32:15;;;;;;;80.38;13.68;;;;;;;;;;4993864;28;20049;-66
2021/10/07 09:34:46;;;;;;;54.38;12.90;;;;;;;;;;4994352;28;20056;-66
2021/10/07 09:37:21;;;;;;;78.47;11.30;;;;;;;;;;4994005;28;20042;-66
2021/10/07 09:39:48;;;;;;;45.97;10.45;;;;;;;;;;5010617;28;20053;-66
2021/10/07 09:42:18;;;;;;;61.53;10.55;;;;;;;;;;5011642;28;20370;-66
2021/10/07 09:44:58;;;;;;;47.35;12.38;;;;;;;;;;4992099;28;20129;-66
2021/10/07 09:47:28;;;;;;;26.67;11.18;;;;;;;;;;5010759;28;20076;-65
2021/10/07 09:50:07;;;;;;;21.08;9.82;;;;;;;;;;4993676;28;20049;-75
2021/10/07 09:52:40;;;;;;;20.85;10.50;;;;;;;;;;5010255;28;20104;-66
2021/10/07 09:55:11;;;;;;;16.43;10.60;;;;;;;;;;4993718;28;20132;-65
2021/10/07 09:57:51;;;;;;;30.70;9.57;;;;;;;;;;5010957;28;20293;-65
2021/10/07 10:00:18;;;;;;;16.55;10.15;;;;;;;;;;5010220;28;20098;-65
2021/10/07 10:02:44;;;;;;;18.45;9.65;;;;;;;;;;4993438;28;20049;-66
2021/10/07 10:05:13;;;;;;;15.75;9.98;;;;;;;;;;5010496;28;20493;-65
2021/10/07 10:07:40;;;;;;;14.25;11.73;;;;;;;;;;5010651;28;20053;-65
2021/10/07 10:10:07;;;;;;;14.65;11.90;;;;;;;;;;5011445;28;20046;-65
2021/10/07 10:12:33;;;;;;;12.60;9.95;;;;;;;;;;5010130;28;20368;-66
2021/10/07 10:15:01;;;;;;;12.25;10.73;;;;;;;;;;4993298;28;20042;-66
2021/10/07 10:17:27;;;;;;;14.48;11.07;;;;;;;;;;4993205;28;20216;-65
2021/10/07 10:19:55;;;;;;;17.10;12.90;;;;;;;;;;4992520;28;20470;-65
2021/10/07 10:22:22;;;;;;;15.73;12.32;;;;;;;;;;5010968;28;20061;-65
2021/10/07 10:24:48;;;;;;;17.40;12.43;;;;;;;;;;5010829;28;20048;-66
2021/10/07 10:27:15;;;;;;;19.80;12.25;;;;;;;;;;5010131;28;20126;-66
2021/10/07 10:29:41;;;;;;;26.23;11.77;;;;;;;;;;5010931;28;20091;-65
2021/10/07 10:32:09;;;;;;;13.52;11.38;;;;;;;;;;4993270;28;20429;-65
2021/10/07 10:34:44;;;;;;;12.27;10.35;;;;;;;;;;4992424;28;20122;-66
2021/10/07 10:37:12;;;;;;;16.92;11.75;;;;;;;;;;5010158;28;20147;-65
2021/10/07 10:39:40;;;;;;;19.98;12.02;;;;;;;;;;5010058;28;20112;-66
2021/10/07 10:42:08;;;;;;;18.40;14.25;;;;;;;;;;5006455;28;20113;-66
2021/10/07 10:44:42;;;;;;;19.75;15.65;;;;;;;;;;4993001;28;20136;-66
2021/10/07 10:47:08;;;;;;;;;;;;;;;;;;4993010;28;20050;-66
2021/10/07 10:49:36;;;;;;;20.15;17.67;;;;;;;;;;4992327;28;19968;-66
2021/10/07 10:52:11;;;;;;;20.83;17.15;;;;;;;;;;4992189;28;20050;-66
2021/10/07 10:54:42;;;;;;;18.35;13.63;;;;;;;;;;4989316;28;20050;-66
2021/10/07 10:57:08;;;;;;;18.38;15.10;;;;;;;;;;4991858;28;20045;-66
2021/10/07 10:59:37;;;;;;;20.25;15.25;;;;;;;;;;5010624;28;20049;-66
2021/10/07 11:02:16;;;;;;;20.27;14.95;;;;;;;;;;5009177;28;20069;-66
2021/10/07 11:04:43;;;;;;;15.98;13.55;;;;;;;;;;5008606;28;20056;-66
2021/10/07 11:07:17;;;;;;;13.07;10.90;;;;;;;;;;5009872;28;20054;-66
2021/10/07 11:10:00;;;;;;;11.23;9.73;;;;;;;;;;5007855;28;20510;-66
2021/10/07 11:12:31;;;;;;;11.10;8.68;;;;;;;;;;5010306;28;20045;-66
2021/10/07 11:14:58;;;;;;;9.02;7.60;;;;;;;;;;5010221;28;20422;-66
2021/10/07 11:17:27;;;;;;;9.70;6.85;;;;;;;;;;5009185;28;20045;-66
2021/10/07 11:19:53;;;;;;;9.93;8.93;;;;;;;;;;5012886;28;20122;-66
2021/10/07 11:22:20;;;;;;;11.80;9.35;;;;;;;;;;5013445;28;20080;-64
2021/10/07 11:24:48;;;;;;;10.57;9.55;;;;;;;;;;5010931;28;20053;-63
2021/10/07 11:27:14;;;;;;;10.70;9.50;;;;;;;;;;5010171;28;20133;-63
2021/10/07 11:29:40;;;;;;;10.10;8.73;;;;;;;;;;5013004;28;20379;-63
2021/10/07 11:32:06;;;;;;;9.68;7.85;;;;;;;;;;5013694;28;20052;-63
2021/10/07 11:34:33;;;;;;;11.98;8.43;;;;;;;;;;5014087;28;20084;-64
2021/10/07 11:36:59;;;;;;;12.07;10.57;;;;;;;;;;5012879;28;20056;-66
2021/10/07 11:39:25;;;;;;;10.70;9.63;;;;;;;;;;5013704;28;20445;-66
2021/10/07 11:41:51;;;;;;;12.98;11.18;;;;;;;;;;5011770;28;20489;-66
2021/10/07 11:44:17;;;;;;;13.50;12.10;;;;;;;;;;5011553;28;20129;-66
2021/10/07 11:46:44;;;;;;;13.32;11.93;;;;;;;;;;5027396;28;20549;-66
2021/10/07 11:49:11;;;;;;;13.48;11.82;;;;;;;;;;5013244;28;20063;-67
2021/10/07 11:51:39;;;;;;;11.95;10.32;;;;;;;;;;5011889;28;20045;-66
2021/10/07 11:54:05;;;;;;;10.45;9.18;;;;;;;;;;5013500;28;20049;-66
2021/10/07 11:56:32;;;;;;;10.82;9.80;;;;;;;;;;5012820;28;20119;-66
2021/10/07 11:59:01;;;;;;;9.68;8.43;;;;;;;;;;5011774;28;20060;-66
2021/10/07 12:01:34;;;;;;;9.68;7.28;;;;;;;;;;5012803;28;20088;-66
2021/10/07 12:04:00;;;;;;;;;;;;;;;;;;4995575;28;20116;-66
2021/10/07 12:06:27;;;;;;;8.15;6.70;;;;;;;;;;5011587;28;19921;-67
2021/10/07 12:08:54;;;;;;;6.57;4.97;;;;;;;;;;5011966;28;20056;-66
2021/10/07 12:11:22;;;;;;;9.80;5.75;;;;;;;;;;5011435;28;20120;-66
2021/10/07 12:13:49;;;;;;;7.00;5.20;;;;;;;;;;5010844;28;20046;-66
2021/10/07 12:16:18;;;;;;;5.97;5.13;;;;;;;;;;5012164;28;20076;-66
2021/10/07 12:18:48;;;;;;;9.13;5.40;;;;;;;;;;5012078;28;20180;-67
2021/10/07 12:21:15;;;;;;;9.88;4.95;;;;;;;;;;5010650;28;20042;-66
2021/10/07 12:24:00;;;;;;;6.38;4.22;;;;;;;;;;5010445;28;20037;-67
2021/10/07 12:26:29;;;;;;;7.75;4.82;;;;;;;;;;4994084;28;20053;-67
2021/10/07 12:28:56;;;;;;;5.70;4.03;;;;;;;;;;5011131;28;20046;-66
2021/10/07 12:31:23;;;;;;;4.35;3.47;;;;;;;;;;4994750;28;20041;-66
2021/10/07 12:33:57;;;;;;;5.32;4.00;;;;;;;;;;5006958;28;20494;-66
2021/10/07 12:36:31;;;;;;;4.88;3.88;;;;;;;;;;5012167;28;20088;-67
2021/10/07 12:38:57;;;;;;;13.00;4.78;;;;;;;;;;5007875;28;20050;-66
2021/10/07 12:41:32;;;;;;;6.85;4.38;;;;;;;;;;5010422;28;20398;-67
2021/10/07 12:43:58;;;;;;;5.60;4.63;;;;;;;;;;5011210;28;20045;-67
2021/10/07 12:46:25;;;;;;;6.95;5.40;;;;;;;;;;5010891;28;20052;-66
2021/10/07 12:48:54;;;;;;;9.70;5.57;;;;;;;;;;5009720;28;20100;-67
2021/10/07 12:51:21;;;;;;;7.65;5.32;;;;;;;;;;5009819;28;20053;-67
2021/10/07 12:53:48;;;;;;;7.47;5.95;;;;;;;;;;4992917;28;20057;-67
2021/10/07 12:56:16;;;;;;;7.32;5.28;;;;;;;;;;5010450;28;20056;-67
2021/10/07 12:58:47;;;;;;;7.72;5.65;;;;;;;;;;4995450;28;20434;-67
2021/10/07 13:01:14;;;;;;;7.22;6.47;;;;;;;;;;4975086;28;20042;-67
2021/10/07 13:03:40;;;;;;;7.97;6.10;;;;;;;;;;4991783;28;20081;-66
2021/10/07 13:06:09;;;;;;;8.48;6.10;;;;;;;;;;4992506;28;20451;-67
2021/10/07 13:08:35;;;;;;;7.35;6.55;;;;;;;;;;4990393;28;20109;-66
2021/10/07 13:11:02;;;;;;;9.30;6.60;;;;;;;;;;4994737;28;20117;-66
2021/10/07 13:13:28;;;;;;;7.70;6.90;;;;;;;;;;4994188;28;20053;-66
2021/10/07 13:15:54;;;;;;;9.00;6.57;;;;;;;;;;4991809;28;20042;-66
2021/10/07 13:18:21;;;;;;;8.30;6.65;;;;;;;;;;4994905;28;20711;-67
2021/10/07 13:20:47;;;;;;;13.10;7.18;;;;;;;;;;4990870;28;20129;-67
2021/10/07 13:23:14;;;;;;;7.20;4.50;;;;;;;;;;4996485;28;20050;-66
2021/10/07 13:25:44;;;;;;;8.68;7.22;;;;;;;;;;4992102;28;20038;-67
2021/10/07 13:28:11;;;;;;;8.35;7.22;;;;;;;;;;4982489;28;20104;-67
2021/10/07 13:30:37;;;;;;;7.90;7.07;;;;;;;;;;4990858;28;20038;-67
2021/10/07 13:33:05;;;;;;;9.48;7.57;;;;;;;;;;4991682;28;20180;-66
2021/10/07 13:35:32;;;;;;;11.55;8.05;;;;;;;;;;4979735;28;20074;-67
2021/10/07 13:38:00;;;;;;;12.88;8.68;;;;;;;;;;4994919;28;20113;-66
2021/10/07 13:40:26;;;;;;;11.05;8.48;;;;;;;;;;4992261;28;20081;-67
2021/10/07 13:42:52;;;;;;;10.38;8.40;;;;;;;;;;4991182;28;20512;-66
2021/10/07 13:45:19;;;;;;;11.80;9.75;;;;;;;;;;4991967;28;20061;-67
2021/10/07 13:47:51;;;;;;;10.80;9.20;;;;;;;;;;4991864;28;20042;-67
2021/10/07 13:50:18;;;;;;;13.43;9.38;;;;;;;;;;4994254;28;20050;-66
2021/10/07 13:52:45;;;;;;;14.38;8.80;;;;;;;;;;4973846;28;20057;-71
2021/10/07 13:55:11;;;;;;;34.33;10.25;;;;;;;;;;4981112;28;20100;-66
2021/10/07 13:57:37;;;;;;;10.13;8.65;;;;;;;;;;4997299;28;20473;-67
2021/10/07 14:00:05;;;;;;;9.95;8.95;;;;;;;;;;4973770;28;20061;-67
2021/10/07 14:02:32;;;;;;;13.32;9.82;;;;;;;;;;4992459;28;20051;-67
2021/10/07 14:04:58;;;;;;;10.63;9.52;;;;;;;;;;4980814;28;20053;-67
2021/10/07 14:07:24;;;;;;;11.25;9.35;;;;;;;;;;4978531;28;20104;-66
2021/10/07 14:09:50;;;;;;;13.40;10.15;;;;;;;;;;5002646;28;20396;-66
2021/10/07 14:12:17;;;;;;;12.60;9.75;;;;;;;;;;4986235;28;20036;-66
2021/10/07 14:14:43;;;;;;;11.45;10.25;;;;;;;;;;4983369;28;20422;-66
2021/10/07 14:17:10;;;;;;;12.30;10.52;;;;;;;;;;4982847;28;20469;-67
2021/10/07 14:19:36;;;;;;;15.95;10.88;;;;;;;;;;4983638;28;20047;-66
2021/10/07 14:22:02;;;;;;;12.93;10.40;;;;;;;;;;4968263;28;20082;-66
2021/10/07 14:24:28;;;;;;;13.73;10.93;;;;;;;;;;4991736;28;20034;-66
2021/10/07 14:26:55;;;;;;;15.30;12.13;;;;;;;;;;4976755;28;20406;-66